Time;durP1;ratioP1;P1;durP2;ratioP2;P2;SDS_P1;SDS_P2;PMS_P1;PMS_P2;Temp;Humidity;BMP_temperature;BMP_pressure;BME280_temperature;BME280_humidity;BME280_pressure;Samples;Min_cycle;Max_cycle;Signal;HPM_P1;HPM_P2
2022/07/04 00:01:08;;;;;;;;;;;;;;;;;;4986967;28;137631;-63
2022/07/04 00:03:34;;;;;;;;;;;;;;;;;;4988362;28;121757;-62
2022/07/04 00:06:01;;;;;;;;;;;;;;;;;;4986879;28;136714;-62
2022/07/04 00:08:27;;;;;;;;;;;;;;;;;;4986731;28;106410;-63
2022/07/04 00:10:53;;;;;;;;;;;;;;;;;;4990495;28;121955;-63
2022/07/04 00:13:20;;;;;;;;;;;;;;;;;;4990818;28;136451;-63
2022/07/04 00:15:46;;;;;;;;;;;;;;;;;;4991132;28;131578;-62
2022/07/04 00:18:12;;;;;;;;;;;;;;;;;;4989079;28;123221;-62
2022/07/04 00:20:38;;;;;;;;;;;;;;;;;;4993079;28;129073;-62
2022/07/04 00:23:05;;;;;;;;;;;;;;;;;;4988984;28;124359;-62
2022/07/04 00:25:31;;;;;;;;;;;;;;;;;;4989710;28;127541;-63
2022/07/04 00:27:57;;;;;;;;;;;;;;;;;;4990043;28;133988;-63
2022/07/04 00:30:24;;;;;;;;;;;;;;;;;;4991466;28;106469;-62
2022/07/04 00:32:50;;;;;;;;;;;;;;;;;;4991876;28;128452;-62
2022/07/04 00:35:16;;;;;;;;;;;;;;;;;;4990619;28;138008;-63
2022/07/04 00:37:43;;;;;;;;;;;;;;;;;;4990311;28;120097;-62
2022/07/04 00:40:09;;;;;;;;;;;;;;;;;;4985996;28;135073;-63
2022/07/04 00:42:35;;;;;;;;;;;;;;;;;;4991742;28;135859;-62
2022/07/04 00:45:01;;;;;;;;;;;;;;;;;;4988560;28;133916;-62
2022/07/04 00:47:28;;;;;;;;;;;;;;;;;;4988408;28;123113;-62
2022/07/04 00:49:54;;;;;;;;;;;;;;;;;;4991301;28;106596;-62
2022/07/04 00:52:20;;;;;;;;;;;;;;;;;;4990602;28;133380;-62
2022/07/04 00:54:47;;;;;;;;;;;;;;;;;;5004581;28;138844;-63
2022/07/04 00:57:13;;;;;;;;;;;;;;;;;;4989330;28;108142;-62
2022/07/04 00:59:40;;;;;;;;;;;;;;;;;;4991448;28;106393;-63
2022/07/04 01:02:07;;;;;;;;;;;;;;;;;;4989443;28;137045;-63
2022/07/04 01:04:34;;;;;;;;;;;;;;;;;;4990840;28;115691;-63
2022/07/04 01:07:00;;;;;;;;;;;;;;;;;;4986955;28;135569;-63
2022/07/04 01:09:27;;;;;;;;;;;;;;;;;;4989671;28;106702;-63
2022/07/04 01:11:53;;;;;;;;;;;;;;;;;;4988553;28;133313;-62
2022/07/04 01:14:21;;;;;;;;;;;;;;;;;;4983030;28;128491;-62
2022/07/04 01:16:48;;;;;;;;;;;;;;;;;;4990067;28;105858;-62
2022/07/04 01:19:14;;;;;;;;;;;;;;;;;;4987439;28;137155;-62
2022/07/04 01:21:40;;;;;;;;;;;;;;;;;;4988612;28;133517;-62
2022/07/04 01:24:06;;;;;;;;;;;;;;;;;;4988907;28;122174;-63
2022/07/04 01:26:33;;;;;;;;;;;;;;;;;;4991880;28;132502;-62
2022/07/04 01:28:59;;;;;;;;;;;;;;;;;;4990470;28;122734;-62
2022/07/04 01:31:25;;;;;;;;;;;;;;;;;;4987489;28;136750;-62
2022/07/04 01:33:52;;;;;;;;;;;;;;;;;;4982490;28;116297;-62
2022/07/04 01:36:18;;;;;;;;;;;;;;;;;;4989967;28;105957;-62
2022/07/04 01:38:44;;;;;;;;;;;;;;;;;;4986740;28;129859;-61
2022/07/04 01:41:10;;;;;;;;;;;;;;;;;;4988857;28;114169;-62
2022/07/04 01:43:37;;;;;;;;;;;;;;;;;;4988726;28;122528;-62
2022/07/04 01:46:03;;;;;;;;;;;;;;;;;;4988897;28;135274;-62
2022/07/04 01:48:29;;;;;;;;;;;;;;;;;;4990239;28;136111;-62
2022/07/04 01:50:56;;;;;;;;;;;;;;;;;;4990991;28;115902;-62
2022/07/04 01:53:22;;;;;;;;;;;;;;;;;;4988200;28;137819;-62
2022/07/04 01:55:48;;;;;;;;;;;;;;;;;;4989059;28;123075;-63
2022/07/04 01:58:14;;;;;;;;;;;;;;;;;;4987916;28;135155;-62
2022/07/04 02:03:26;;;;;;;;;;;;;;;;;;4988713;28;123393;-63
2022/07/04 02:05:52;;;;;;;;;;;;;;;;;;4989585;28;123468;-62
2022/07/04 02:08:18;;;;;;;;;;;;;;;;;;4993271;28;116076;-62
2022/07/04 02:10:45;;;;;;;;;;;;;;;;;;4988396;28;135490;-61
2022/07/04 02:13:11;;;;;;;;;;;;;;;;;;4987495;28;136656;-62
2022/07/04 02:15:37;;;;;;;;;;;;;;;;;;4986843;28;118994;-61
2022/07/04 02:18:04;;;;;;;;;;;;;;;;;;4989977;28;126033;-62
2022/07/04 02:20:30;;;;;;;;;;;;;;;;;;4987774;28;135750;-62
2022/07/04 02:22:56;;;;;;;;;;;;;;;;;;4983983;28;111524;-62
2022/07/04 02:25:23;;;;;;;;;;;;;;;;;;4987276;28;107738;-62
2022/07/04 02:27:53;;;;;;;;;;;;;;;;;;4989375;28;107385;-62
2022/07/04 02:30:19;;;;;;;;;;;;;;;;;;4991904;28;108171;-62
2022/07/04 02:32:46;;;;;;;;;;;;;;;;;;4989086;28;138331;-62
2022/07/04 02:35:12;;;;;;;;;;;;;;;;;;4988868;28;107807;-62
2022/07/04 02:37:38;;;;;;;;;;;;;;;;;;4987586;28;135345;-62
2022/07/04 02:40:04;;;;;;;;;;;;;;;;;;5000179;28;106748;-62
2022/07/04 02:42:31;;;;;;;;;;;;;;;;;;4988587;28;108070;-62
2022/07/04 02:44:57;;;;;;;;;;;;;;;;;;4987808;28;133685;-63
2022/07/04 02:47:23;;;;;;;;;;;;;;;;;;4982719;28;140943;-62
2022/07/04 02:49:50;;;;;;;;;;;;;;;;;;4980689;28;106213;-61
2022/07/04 02:52:16;;;;;;;;;;;;;;;;;;4992493;28;116904;-61
2022/07/04 02:54:42;;;;;;;;;;;;;;;;;;4987221;28;123179;-62
2022/07/04 02:57:09;;;;;;;;;;;;;;;;;;4986693;28;135930;-62
2022/07/04 02:59:35;;;;;;;;;;;;;;;;;;4985631;28;135798;-61
2022/07/04 03:02:02;;;;;;;;;;;;;;;;;;4989992;28;121175;-61
2022/07/04 03:04:28;;;;;;;;;;;;;;;;;;4988152;28;114890;-62
2022/07/04 03:06:54;;;;;;;;;;;;;;;;;;4988053;28;132464;-62
2022/07/04 03:09:21;;;;;;;;;;;;;;;;;;4987094;28;123162;-63
2022/07/04 03:11:47;;;;;;;;;;;;;;;;;;4986802;28;116380;-61
2022/07/04 03:14:13;;;;;;;;;;;;;;;;;;4989401;28;136338;-61
2022/07/04 03:16:40;;;;;;;;;;;;;;;;;;4988497;28;129051;-61
2022/07/04 03:19:06;;;;;;;;;;;;;;;;;;4989082;28;106943;-64
2022/07/04 03:21:32;;;;;;;;;;;;;;;;;;4986867;28;121993;-62
2022/07/04 03:23:59;;;;;;;;;;;;;;;;;;4987683;28;135999;-62
2022/07/04 03:26:25;;;;;;;;;;;;;;;;;;4987164;28;107363;-62
2022/07/04 03:28:52;;;;;;;;;;;;;;;;;;4987533;28;123394;-62
2022/07/04 03:31:18;;;;;;;;;;;;;;;;;;4988952;28;129353;-61
2022/07/04 03:33:44;;;;;;;;;;;;;;;;;;4987900;28;106207;-62
2022/07/04 03:36:11;;;;;;;;;;;;;;;;;;4985042;28;123281;-62
2022/07/04 03:38:37;;;;;;;;;;;;;;;;;;4987163;28;135816;-62
2022/07/04 03:41:03;;;;;;;;;;;;;;;;;;5001025;27;121059;-62
2022/07/04 03:43:29;;;;;;;;;;;;;;;;;;4987254;28;122249;-61
2022/07/04 03:45:56;;;;;;;;;;;;;;;;;;4988363;28;125276;-62
2022/07/04 03:48:22;;;;;;;;;;;;;;;;;;4987043;28;106111;-62
2022/07/04 03:50:48;;;;;;;;;;;;;;;;;;4987576;28;135270;-61
2022/07/04 03:53:15;;;;;;;;;;;;;;;;;;4986987;28;136970;-62
2022/07/04 03:55:42;;;;;;;;;;;;;;;;;;4984412;28;117987;-63
2022/07/04 03:58:08;;;;;;;;;;;;;;;;;;4987247;28;137519;-62
2022/07/04 04:00:35;;;;;;;;;;;;;;;;;;4987342;28;107130;-62
2022/07/04 04:03:01;;;;;;;;;;;;;;;;;;5003939;28;125073;-61
2022/07/04 04:05:30;;;;;;;;;;;;;;;;;;4985592;28;136287;-62
2022/07/04 04:07:56;;;;;;;;;;;;;;;;;;4987904;28;123303;-62
2022/07/04 04:10:22;;;;;;;;;;;;;;;;;;4979319;28;135720;-63
2022/07/04 04:12:49;;;;;;;;;;;;;;;;;;4976517;28;124985;-62
2022/07/04 04:15:15;;;;;;;;;;;;;;;;;;4983165;28;106678;-62
2022/07/04 04:17:41;;;;;;;;;;;;;;;;;;4991054;28;137473;-62
2022/07/04 04:20:08;;;;;;;;;;;;;;;;;;4982669;28;120738;-63
2022/07/04 04:22:35;;;;;;;;;;;;;;;;;;4982309;28;129798;-62
2022/07/04 04:25:01;;;;;;;;;;;;;;;;;;4983226;28;133189;-62
2022/07/04 04:27:27;;;;;;;;;;;;;;;;;;4986527;28;126589;-62
2022/07/04 04:29:53;;;;;;;;;;;;;;;;;;4988456;28;109389;-63
2022/07/04 04:32:20;;;;;;;;;;;;;;;;;;4987435;28;137087;-62
2022/07/04 04:34:46;;;;;;;;;;;;;;;;;;4985660;28;122477;-62
2022/07/04 04:37:12;;;;;;;;;;;;;;;;;;4985272;28;119610;-62
2022/07/04 04:39:39;;;;;;;;;;;;;;;;;;4990272;28;137063;-62
2022/07/04 04:42:05;;;;;;;;;;;;;;;;;;4987158;28;119021;-62
2022/07/04 04:44:31;;;;;;;;;;;;;;;;;;4986002;28;136151;-62
2022/07/04 04:46:58;;;;;;;;;;;;;;;;;;4987968;28;120017;-62
2022/07/04 04:49:24;;;;;;;;;;;;;;;;;;4985068;28;136428;-62
2022/07/04 04:51:50;;;;;;;;;;;;;;;;;;4983557;28;131234;-64
2022/07/04 04:54:16;;;;;;;;;;;;;;;;;;4988624;28;121508;-64
2022/07/04 04:56:43;;;;;;;;;;;;;;;;;;4990818;28;113491;-62
2022/07/04 04:59:09;;;;;;;;;;;;;;;;;;4990073;28;108859;-67
2022/07/04 05:01:36;;;;;;;;;;;;;;;;;;4992701;28;109800;-62
2022/07/04 05:04:07;;;;;;;;;;;;;;;;;;4988389;28;137741;-63
2022/07/04 05:06:33;;;;;;;;;;;;;;;;;;4988850;28;122562;-62
2022/07/04 05:09:00;;;;;;;;;;;;;;;;;;4990687;28;131167;-62
2022/07/04 05:11:26;;;;;;;;;;;;;;;;;;4986426;28;132434;-62
2022/07/04 05:13:52;;;;;;;;;;;;;;;;;;5003942;28;123477;-62
2022/07/04 05:16:19;;;;;;;;;;;;;;;;;;4989990;28;136584;-62
2022/07/04 05:18:45;;;;;;;;;;;;;;;;;;4989405;28;127446;-62
2022/07/04 05:21:11;;;;;;;;;;;;;;;;;;4988608;28;122132;-62
2022/07/04 05:23:37;;;;;;;;;;;;;;;;;;4994602;28;107128;-62
2022/07/04 05:26:04;;;;;;;;;;;;;;;;;;4988290;28;123758;-62
2022/07/04 05:28:30;;;;;;;;;;;;;;;;;;4989514;28;137236;-62
2022/07/04 05:30:56;;;;;;;;;;;;;;;;;;4984867;28;138072;-62
2022/07/04 05:33:23;;;;;;;;;;;;;;;;;;4988656;28;119819;-63
2022/07/04 05:35:49;;;;;;;;;;;;;;;;;;4990005;28;133489;-62
2022/07/04 05:38:15;;;;;;;;;;;;;;;;;;4988056;28;136200;-62
2022/07/04 05:40:41;;;;;;;;;;;;;;;;;;5002714;28;106894;-62
2022/07/04 05:43:08;;;;;;;;;;;;;;;;;;4985398;28;136522;-63
2022/07/04 05:45:34;;;;;;;;;;;;;;;;;;4990562;28;134415;-62
2022/07/04 05:48:00;;;;;;;;;;;;;;;;;;4989305;28;136335;-62
2022/07/04 05:50:27;;;;;;;;;;;;;;;;;;4988939;28;135744;-62
2022/07/04 05:52:57;;;;;;;;;;;;;;;;;;4990404;28;122030;-62
2022/07/04 05:55:24;;;;;;;;;;;;;;;;;;4987452;28;135935;-62
2022/07/04 05:57:50;;;;;;;;;;;;;;;;;;4989343;28;133485;-62
2022/07/04 06:00:16;;;;;;;;;;;;;;;;;;4989001;28;122717;-62
2022/07/04 06:02:43;;;;;;;;;;;;;;;;;;4982077;28;135722;-64
2022/07/04 06:05:09;;;;;;;;;;;;;;;;;;4982810;28;137431;-63
2022/07/04 06:07:37;;;;;;;;;;;;;;;;;;4989443;28;123267;-62
2022/07/04 06:10:03;;;;;;;;;;;;;;;;;;4987010;28;137128;-63
2022/07/04 06:12:29;;;;;;;;;;;;;;;;;;4988022;28;124073;-63
2022/07/04 06:14:56;;;;;;;;;;;;;;;;;;4987086;28;120616;-63
2022/07/04 06:17:22;;;;;;;;;;;;;;;;;;4978659;28;137085;-63
2022/07/04 06:19:48;;;;;;;;;;;;;;;;;;4987521;28;123334;-63
2022/07/04 06:22:14;;;;;;;;;;;;;;;;;;4988184;28;136526;-63
2022/07/04 06:24:41;;;;;;;;;;;;;;;;;;4980906;28;137044;-64
2022/07/04 06:27:07;;;;;;;;;;;;;;;;;;4983304;28;118359;-68
2022/07/04 06:29:33;;;;;;;;;;;;;;;;;;4979712;28;110795;-65
2022/07/04 06:32:00;;;;;;;;;;;;;;;;;;4977680;28;121903;-62
2022/07/04 06:37:12;;;;;;;;;;;;;;;;;;4984372;28;107476;-63
2022/07/04 06:39:38;;;;;;;;;;;;;;;;;;4988407;28;121798;-65
2022/07/04 06:42:04;;;;;;;;;;;;;;;;;;4988928;28;132292;-63
2022/07/04 06:44:30;;;;;;;;;;;;;;;;;;4984849;28;136646;-61
2022/07/04 06:46:57;;;;;;;;;;;;;;;;;;4989970;28;106128;-63
2022/07/04 06:49:23;;;;;;;;;;;;;;;;;;4990480;28;137615;-61
2022/07/04 06:51:49;;;;;;;;;;;;;;;;;;4986932;28;123791;-63
2022/07/04 06:54:16;;;;;;;;;;;;;;;;;;4988474;28;109191;-60
2022/07/04 06:56:42;;;;;;;;;;;;;;;;;;4987817;28;137698;-62
2022/07/04 06:59:08;;;;;;;;;;;;;;;;;;4989415;28;106734;-61
2022/07/04 07:01:35;;;;;;;;;;;;;;;;;;4986790;28;137817;-61
2022/07/04 07:04:01;;;;;;;;;;;;;;;;;;4986852;28;137608;-62
2022/07/04 07:06:28;;;;;;;;;;;;;;;;;;4987108;28;121824;-62
2022/07/04 07:08:54;;;;;;;;;;;;;;;;;;4989032;28;120408;-63
2022/07/04 07:11:21;;;;;;;;;;;;;;;;;;4990940;28;135752;-62
2022/07/04 07:13:48;;;;;;;;;;;;;;;;;;4981815;28;135312;-62
2022/07/04 07:16:14;;;;;;;;;;;;;;;;;;4981923;28;136490;-62
2022/07/04 07:18:40;;;;;;;;;;;;;;;;;;4986336;28;125141;-62
2022/07/04 07:21:06;;;;;;;;;;;;;;;;;;4987856;28;134179;-63
2022/07/04 07:23:33;;;;;;;;;;;;;;;;;;4988346;28;116821;-61
2022/07/04 07:25:59;;;;;;;;;;;;;;;;;;4985345;28;106963;-61
2022/07/04 07:28:25;;;;;;;;;;;;;;;;;;4983878;28;118437;-62
2022/07/04 07:30:52;;;;;;;;;;;;;;;;;;4987465;28;137288;-64
2022/07/04 07:33:18;;;;;;;;;;;;;;;;;;4992170;28;122768;-63
2022/07/04 07:35:44;;;;;;;;;;;;;;;;;;4986553;28;122089;-62
2022/07/04 07:38:10;;;;;;;;;;;;;;;;;;4987447;28;123207;-62
2022/07/04 07:40:37;;;;;;;;;;;;;;;;;;4986586;28;137057;-62
2022/07/04 07:43:03;;;;;;;;;;;;;;;;;;4985583;28;135362;-65
2022/07/04 07:45:29;;;;;;;;;;;;;;;;;;4987054;28;119305;-62
2022/07/04 07:47:56;;;;;;;;;;;;;;;;;;4978979;28;135273;-63
2022/07/04 07:50:22;;;;;;;;;;;;;;;;;;4979608;28;129207;-62
2022/07/04 07:52:48;;;;;;;;;;;;;;;;;;4988483;28;116391;-63
2022/07/04 07:55:15;;;;;;;;;;;;;;;;;;5000968;28;116897;-66
2022/07/04 07:57:41;;;;;;;;;;;;;;;;;;4976868;28;117674;-63
2022/07/04 08:00:13;;;;;;;;;;;;;;;;;;4986448;28;133480;-62
2022/07/04 08:05:26;;;;;;;;;;;;;;;;;;4986421;28;120032;-64
2022/07/04 08:07:52;;;;;;;;;;;;;;;;;;4986238;28;137627;-63
2022/07/04 08:10:18;;;;;;;;;;;;;;;;;;4984807;28;135831;-63
2022/07/04 08:12:45;;;;;;;;;;;;;;;;;;4985563;28;122701;-63
2022/07/04 08:15:11;;;;;;;;;;;;;;;;;;4980235;28;108385;-65
2022/07/04 08:17:37;;;;;;;;;;;;;;;;;;4990085;28;106489;-71
2022/07/04 08:20:03;;;;;;;;;;;;;;;;;;4975220;28;132420;-63
2022/07/04 08:22:30;;;;;;;;;;;;;;;;;;4982109;28;115819;-65
2022/07/04 08:24:56;;;;;;;;;;;;;;;;;;4980484;28;123782;-64
2022/07/04 08:27:23;;;;;;;;;;;;;;;;;;4984213;28;120737;-64
2022/07/04 08:29:55;;;;;;;;;;;;;;;;;;4980230;28;123953;-63
2022/07/04 08:32:21;;;;;;;;;;;;;;;;;;4989680;28;126421;-65
2022/07/04 08:34:48;;;;;;;;;;;;;;;;;;4990528;28;134301;-64
2022/07/04 08:37:15;;;;;;;;;;;;;;;;;;4991654;28;135285;-64
2022/07/04 08:39:41;;;;;;;;;;;;;;;;;;4990152;28;124003;-63
2022/07/04 08:42:08;;;;;;;;;;;;;;;;;;4990582;28;127236;-63
2022/07/04 08:44:34;;;;;;;;;;;;;;;;;;4989610;28;119680;-63
2022/07/04 08:47:01;;;;;;;;;;;;;;;;;;4990202;28;136596;-64
2022/07/04 08:49:27;;;;;;;;;;;;;;;;;;4976725;28;137870;-66
2022/07/04 08:51:54;;;;;;;;;;;;;;;;;;4987744;28;114904;-63
2022/07/04 08:58:25;;;;;;;;;;;;;;;;;;4982937;28;121768;-65
2022/07/04 08:58:26;;;;;;;;;;;;;;;;;;4988427;28;128348;-63
2022/07/04 09:00:21;;;;;;;;;;;;;;;;;;4985463;28;123556;-64
2022/07/04 09:02:47;;;;;;;;;;;;;;;;;;4989844;28;137162;-63
2022/07/04 09:05:15;;;;;;;;;;;;;;;;;;4985323;28;106530;-63
2022/07/04 09:07:41;;;;;;;;;;;;;;;;;;4987574;28;120861;-63
2022/07/04 09:10:08;;;;;;;;;;;;;;;;;;4989311;28;107348;-64
2022/07/04 09:12:34;;;;;;;;;;;;;;;;;;4989906;28;122100;-63
2022/07/04 09:15:20;;;;;;;;;;;;;;;;;;4987364;28;106685;-63
2022/07/04 09:17:47;;;;;;;;;;;;;;;;;;4987244;28;136410;-63
2022/07/04 09:20:13;;;;;;;;;;;;;;;;;;4988257;28;116921;-63
2022/07/04 09:22:39;;;;;;;;;;;;;;;;;;4990049;28;137116;-63
2022/07/04 09:25:12;;;;;;;;;;;;;;;;;;4989617;28;107747;-63
2022/07/04 09:27:44;;;;;;;;;;;;;;;;;;4990224;28;106320;-65
2022/07/04 09:30:10;;;;;;;;;;;;;;;;;;4988387;28;135824;-65
2022/07/04 09:32:36;;;;;;;;;;;;;;;;;;4982787;28;122655;-65
2022/07/04 09:35:03;;;;;;;;;;;;;;;;;;4981505;28;136632;-65
2022/07/04 09:37:29;;;;;;;;;;;;;;;;;;4983562;28;124672;-65
2022/07/04 09:39:55;;;;;;;;;;;;;;;;;;4986919;28;120334;-66
2022/07/04 09:42:21;;;;;;;;;;;;;;;;;;5004794;28;124696;-66
2022/07/04 09:44:50;;;;;;;;;;;;;;;;;;4992899;28;112981;-66
2022/07/04 09:47:17;;;;;;;;;;;;;;;;;;4986740;28;136750;-66
2022/07/04 09:49:43;;;;;;;;;;;;;;;;;;4987855;28;125181;-65
2022/07/04 09:52:10;;;;;;;;;;;;;;;;;;4982682;28;106992;-65
2022/07/04 09:54:36;;;;;;;;;;;;;;;;;;4986868;28;130178;-66
2022/07/04 09:57:03;;;;;;;;;;;;;;;;;;4986470;28;132252;-64
2022/07/04 09:59:29;;;;;;;;;;;;;;;;;;4986052;28;117900;-65
2022/07/04 10:01:55;;;;;;;;;;;;;;;;;;4988401;28;125132;-65
2022/07/04 10:04:24;;;;;;;;;;;;;;;;;;4984443;28;135387;-65
2022/07/04 10:06:50;;;;;;;;;;;;;;;;;;5007425;27;118310;-64
2022/07/04 10:09:17;;;;;;;;;;;;;;;;;;4987741;28;129304;-65
2022/07/04 10:11:43;;;;;;;;;;;;;;;;;;4982000;28;124977;-65
2022/07/04 10:14:09;;;;;;;;;;;;;;;;;;4984925;28;137113;-64
2022/07/04 10:16:36;;;;;;;;;;;;;;;;;;4983316;28;117788;-66
2022/07/04 10:19:02;;;;;;;;;;;;;;;;;;4987174;28;123622;-65
2022/07/04 10:21:28;;;;;;;;;;;;;;;;;;4988291;28;121218;-64
2022/07/04 10:23:55;;;;;;;;;;;;;;;;;;4981477;28;112908;-64
2022/07/04 10:26:22;;;;;;;;;;;;;;;;;;4985191;28;107190;-67
2022/07/04 10:28:48;;;;;;;;;;;;;;;;;;4985342;28;136035;-65
2022/07/04 10:31:15;;;;;;;;;;;;;;;;;;4977941;28;106922;-64
2022/07/04 10:33:41;;;;;;;;;;;;;;;;;;4976352;28;136620;-64
2022/07/04 10:36:08;;;;;;;;;;;;;;;;;;4988666;28;131646;-65
2022/07/04 10:38:34;;;;;;;;;;;;;;;;;;4988452;28;106313;-64
2022/07/04 10:41:00;;;;;;;;;;;;;;;;;;4972172;28;137693;-65
2022/07/04 10:43:29;;;;;;;;;;;;;;;;;;4982499;28;137101;-65
2022/07/04 10:45:56;;;;;;;;;;;;;;;;;;4977134;28;109479;-65
2022/07/04 10:48:22;;;;;;;;;;;;;;;;;;4986746;28;107027;-65
2022/07/04 10:50:48;;;;;;;;;;;;;;;;;;4983896;28;123335;-64
2022/07/04 10:53:15;;;;;;;;;;;;;;;;;;4974977;28;135062;-64
2022/07/04 10:55:41;;;;;;;;;;;;;;;;;;4980058;28;136524;-64
2022/07/04 10:58:07;;;;;;;;;;;;;;;;;;4984916;28;124384;-64
2022/07/04 11:00:33;;;;;;;;;;;;;;;;;;4987195;28;136766;-64
2022/07/04 11:03:00;;;;;;;;;;;;;;;;;;4983121;28;136469;-64
2022/07/04 11:05:26;;;;;;;;;;;;;;;;;;4972154;28;120763;-65
2022/07/04 11:07:52;;;;;;;;;;;;;;;;;;4988668;28;107143;-65
2022/07/04 11:10:22;;;;;;;;;;;;;;;;;;4990608;28;137372;-65
2022/07/04 11:12:48;;;;;;;;;;;;;;;;;;4988412;28;130264;-63
2022/07/04 11:15:15;;;;;;;;;;;;;;;;;;4986630;28;107932;-63
2022/07/04 11:17:41;;;;;;;;;;;;;;;;;;4985506;28;124179;-63
2022/07/04 11:20:07;;;;;;;;;;;;;;;;;;4981251;28;129308;-64
2022/07/04 11:22:34;;;;;;;;;;;;;;;;;;4980389;28;109349;-63
2022/07/04 11:25:00;;;;;;;;;;;;;;;;;;4983730;28;125321;-64
2022/07/04 11:27:26;;;;;;;;;;;;;;;;;;4987124;28;136433;-65
2022/07/04 11:29:53;;;;;;;;;;;;;;;;;;4985264;28;137257;-64
2022/07/04 11:32:19;;;;;;;;;;;;;;;;;;4987980;28;107635;-64
2022/07/04 11:34:46;;;;;;;;;;;;;;;;;;4985765;28;138406;-64
2022/07/04 11:37:12;;;;;;;;;;;;;;;;;;4983017;28;116395;-65
2022/07/04 11:39:38;;;;;;;;;;;;;;;;;;4988256;28;119008;-65
2022/07/04 11:45:05;;;;;;;;;;;;;;;;;;4986858;28;122387;-65
2022/07/04 11:47:31;;;;;;;;;;;;;;;;;;4975444;28;126568;-64
2022/07/04 11:49:57;;;;;;;;;;;;;;;;;;4982664;28;111081;-65
2022/07/04 11:52:24;;;;;;;;;;;;;;;;;;4986421;28;120809;-66
2022/07/04 11:55:10;;;;;;;;;;;;;;;;;;4989771;28;107744;-66
2022/07/04 11:57:36;;;;;;;;;;;;;;;;;;4985304;28;116774;-65
2022/07/04 12:00:03;;;;;;;;;;;;;;;;;;4972533;28;138841;-66
2022/07/04 12:02:30;;;;;;;;;;;;;;;;;;4976904;28;108619;-64
2022/07/04 12:04:57;;;;;;;;;;;;;;;;;;4983938;28;123689;-64
2022/07/04 12:07:23;;;;;;;;;;;;;;;;;;4989019;28;115515;-64
2022/07/04 12:09:50;;;;;;;;;;;;;;;;;;4983991;28;133095;-63
2022/07/04 12:12:17;;;;;;;;;;;;;;;;;;4984029;28;124379;-63
2022/07/04 12:14:43;;;;;;;;;;;;;;;;;;4983684;28;107572;-64
2022/07/04 12:17:10;;;;;;;;;;;;;;;;;;4990542;28;134810;-63
2022/07/04 12:19:36;;;;;;;;;;;;;;;;;;4979206;28;136993;-63
2022/07/04 12:22:02;;;;;;;;;;;;;;;;;;4986789;28;123800;-64
2022/07/04 12:24:28;;;;;;;;;;;;;;;;;;4989914;28;120866;-63
2022/07/04 12:26:55;;;;;;;;;;;;;;;;;;4991240;28;132933;-64
2022/07/04 12:29:21;;;;;;;;;;;;;;;;;;4989790;28;136394;-67
2022/07/04 12:31:51;;;;;;;;;;;;;;;;;;4987446;28;120849;-66
2022/07/04 12:34:17;;;;;;;;;;;;;;;;;;4987863;28;127968;-63
2022/07/04 12:36:44;;;;;;;;;;;;;;;;;;4992328;28;131107;-63
2022/07/04 12:39:10;;;;;;;;;;;;;;;;;;4987892;28;137256;-63
2022/07/04 12:41:36;;;;;;;;;;;;;;;;;;4985453;28;136381;-63
2022/07/04 12:44:03;;;;;;;;;;;;;;;;;;4973859;28;108691;-64
2022/07/04 12:46:29;;;;;;;;;;;;;;;;;;4987349;28;127905;-64
2022/07/04 12:48:56;;;;;;;;;;;;;;;;;;4984467;28;138308;-65
2022/07/04 12:51:22;;;;;;;;;;;;;;;;;;4982751;28;107838;-66
2022/07/04 12:53:49;;;;;;;;;;;;;;;;;;4989514;28;136561;-69
2022/07/04 12:56:15;;;;;;;;;;;;;;;;;;4981799;28;123092;-63
2022/07/04 12:58:41;;;;;;;;;;;;;;;;;;4987905;28;124100;-63
2022/07/04 13:01:07;;;;;;;;;;;;;;;;;;4988578;28;135297;-64
2022/07/04 13:03:34;;;;;;;;;;;;;;;;;;4988510;28;120007;-64
2022/07/04 13:06:00;;;;;;;;;;;;;;;;;;4986425;28;137961;-63
2022/07/04 13:08:27;;;;;;;;;;;;;;;;;;4988912;28;138771;-63
2022/07/04 13:12:24;;;;;;;;;;;;;;;;;;4989649;28;106996;-63
2022/07/04 13:13:39;;;;;;;;;;;;;;;;;;4990186;28;108495;-63
2022/07/04 13:16:06;;;;;;;;;;;;;;;;;;4986853;28;138666;-66
2022/07/04 13:18:32;;;;;;;;;;;;;;;;;;4989403;28;123332;-64
2022/07/04 13:20:58;;;;;;;;;;;;;;;;;;5003481;28;136895;-63
2022/07/04 13:23:26;;;;;;;;;;;;;;;;;;4987170;28;124283;-63
2022/07/04 13:25:52;;;;;;;;;;;;;;;;;;4988357;28;138923;-64
2022/07/04 13:28:19;;;;;;;;;;;;;;;;;;4989543;28;127919;-63
2022/07/04 13:30:45;;;;;;;;;;;;;;;;;;4988440;28;124028;-63
2022/07/04 13:33:11;;;;;;;;;;;;;;;;;;4986062;28;114140;-63
2022/07/04 13:35:38;;;;;;;;;;;;;;;;;;4986362;28;135452;-63
2022/07/04 13:38:04;;;;;;;;;;;;;;;;;;4988321;28;121538;-65
2022/07/04 13:40:30;;;;;;;;;;;;;;;;;;4986587;28;125861;-67
2022/07/04 13:42:56;;;;;;;;;;;;;;;;;;4990685;28;136650;-64
2022/07/04 13:45:23;;;;;;;;;;;;;;;;;;4985922;28;137708;-63
2022/07/04 13:47:49;;;;;;;;;;;;;;;;;;4987309;28;129165;-63
2022/07/04 13:50:15;;;;;;;;;;;;;;;;;;4985642;28;124164;-63
2022/07/04 13:52:46;;;;;;;;;;;;;;;;;;4988708;28;124318;-63
2022/07/04 13:55:12;;;;;;;;;;;;;;;;;;4986665;28;136625;-64
2022/07/04 13:57:38;;;;;;;;;;;;;;;;;;4982558;28;114855;-63
2022/07/04 14:00:04;;;;;;;;;;;;;;;;;;4987201;28;134940;-63
2022/07/04 14:02:31;;;;;;;;;;;;;;;;;;5001843;28;108049;-63
2022/07/04 14:04:58;;;;;;;;;;;;;;;;;;4991856;28;122828;-63
2022/07/04 14:07:24;;;;;;;;;;;;;;;;;;5001485;28;138171;-63
2022/07/04 14:09:50;;;;;;;;;;;;;;;;;;4988379;28;124156;-63
2022/07/04 14:12:16;;;;;;;;;;;;;;;;;;4989100;28;127861;-63
2022/07/04 14:14:43;;;;;;;;;;;;;;;;;;4986891;28;117800;-63
2022/07/04 14:17:09;;;;;;;;;;;;;;;;;;4986739;28;127169;-63
2022/07/04 14:19:55;;;;;;;;;;;;;;;;;;4990000;28;107925;-63
2022/07/04 14:22:22;;;;;;;;;;;;;;;;;;4988164;28;109497;-64
2022/07/04 14:24:48;;;;;;;;;;;;;;;;;;4985176;28;121131;-63
2022/07/04 14:27:14;;;;;;;;;;;;;;;;;;4989992;28;131667;-63
2022/07/04 14:29:41;;;;;;;;;;;;;;;;;;4988469;28;123361;-63
2022/07/04 14:32:09;;;;;;;;;;;;;;;;;;4987398;28;136527;-63
2022/07/04 14:34:35;;;;;;;;;;;;;;;;;;4986480;28;135530;-63
2022/07/04 14:37:01;;;;;;;;;;;;;;;;;;4988064;28;107982;-63
2022/07/04 14:39:27;;;;;;;;;;;;;;;;;;4985818;28;137823;-63
2022/07/04 14:41:54;;;;;;;;;;;;;;;;;;4986838;28;139225;-63
2022/07/04 14:44:20;;;;;;;;;;;;;;;;;;4987340;28;123406;-63
2022/07/04 14:46:47;;;;;;;;;;;;;;;;;;4989244;28;136673;-63
2022/07/04 14:49:13;;;;;;;;;;;;;;;;;;4985652;28;107501;-63
2022/07/04 14:51:39;;;;;;;;;;;;;;;;;;4984716;28;137105;-63
2022/07/04 14:54:06;;;;;;;;;;;;;;;;;;4982214;28;138040;-64
2022/07/04 14:56:33;;;;;;;;;;;;;;;;;;4987994;28;124079;-63
2022/07/04 14:58:59;;;;;;;;;;;;;;;;;;4985183;28;134952;-62
2022/07/04 15:01:26;;;;;;;;;;;;;;;;;;4985878;28;134710;-63
2022/07/04 15:03:53;;;;;;;;;;;;;;;;;;4986567;28;122163;-63
2022/07/04 15:06:20;;;;;;;;;;;;;;;;;;4988183;28;137612;-63
2022/07/04 15:08:46;;;;;;;;;;;;;;;;;;4989979;28;108188;-63
2022/07/04 15:11:13;;;;;;;;;;;;;;;;;;4982461;28;137626;-64
2022/07/04 15:13:43;;;;;;;;;;;;;;;;;;4983530;28;108319;-66
2022/07/04 15:16:10;;;;;;;;;;;;;;;;;;4985513;28;107183;-65
2022/07/04 15:18:51;;;;;;;;;;;;;;;;;;4974006;28;134146;-66
2022/07/04 15:24:14;;;;;;;;;;;;;;;;;;4976775;28;107856;-65
2022/07/04 15:26:40;;;;;;;;;;;;;;;;;;5003518;28;108232;-65
2022/07/04 15:29:06;;;;;;;;;;;;;;;;;;4996408;28;138270;-67
2022/07/04 15:31:38;;;;;;;;;;;;;;;;;;4988907;28;118590;-65
2022/07/04 15:34:04;;;;;;;;;;;;;;;;;;4985839;28;138449;-64
2022/07/04 15:36:30;;;;;;;;;;;;;;;;;;4983004;28;124024;-64
2022/07/04 15:38:57;;;;;;;;;;;;;;;;;;4983263;28;108158;-64
2022/07/04 15:41:23;;;;;;;;;;;;;;;;;;4976930;28;137238;-65
2022/07/04 15:43:49;;;;;;;;;;;;;;;;;;4986016;28;124726;-64
2022/07/04 15:46:16;;;;;;;;;;;;;;;;;;4987618;28;139826;-65
2022/07/04 15:48:42;;;;;;;;;;;;;;;;;;4986491;28;107414;-65
2022/07/04 15:51:08;;;;;;;;;;;;;;;;;;4985946;28;124393;-65
2022/07/04 15:53:45;;;;;;;;;;;;;;;;;;4983781;28;126902;-64
2022/07/04 15:56:11;;;;;;;;;;;;;;;;;;4982223;28;124392;-64
2022/07/04 15:58:37;;;;;;;;;;;;;;;;;;4986442;28;138386;-64
2022/07/04 16:01:04;;;;;;;;;;;;;;;;;;4986738;28;129920;-63
2022/07/04 16:03:34;;;;;;;;;;;;;;;;;;5001498;28;108523;-65
2022/07/04 16:06:01;;;;;;;;;;;;;;;;;;4984482;28;125575;-64
2022/07/04 16:08:27;;;;;;;;;;;;;;;;;;4985682;28;109178;-65
2022/07/04 16:10:53;;;;;;;;;;;;;;;;;;4983255;28;119075;-64
2022/07/04 16:13:20;;;;;;;;;;;;;;;;;;4985952;28;137730;-65
2022/07/04 16:15:46;;;;;;;;;;;;;;;;;;4990963;28;108106;-64
2022/07/04 16:18:12;;;;;;;;;;;;;;;;;;4983929;28;137248;-65
2022/07/04 16:20:39;;;;;;;;;;;;;;;;;;4982086;28;133932;-64
2022/07/04 16:23:05;;;;;;;;;;;;;;;;;;4987670;28;106924;-62
2022/07/04 16:25:31;;;;;;;;;;;;;;;;;;4985707;28;130872;-62
2022/07/04 16:27:58;;;;;;;;;;;;;;;;;;4985065;28;133309;-63
2022/07/04 16:30:24;;;;;;;;;;;;;;;;;;5000668;28;113971;-64
2022/07/04 16:32:50;;;;;;;;;;;;;;;;;;4971610;28;137352;-65
2022/07/04 16:35:17;;;;;;;;;;;;;;;;;;4983935;28;137730;-63
2022/07/04 16:37:43;;;;;;;;;;;;;;;;;;4989545;28;119261;-63
2022/07/04 16:40:09;;;;;;;;;;;;;;;;;;4980920;28;122034;-63